Time;durP1;ratioP1;P1;durP2;ratioP2;P2;SDS_P1;SDS_P2;PMS_P1;PMS_P2;Temp;Humidity;BMP_temperature;BMP_pressure;BME280_temperature;BME280_humidity;BME280_pressure;Samples;Min_cycle;Max_cycle;Signal;HPM_P1;HPM_P2
2022/03/08 00:01:30;;;;;;;379.73;40.50;;;0.20;99.90;;;;;;4957767;29;20546;-79
2022/03/08 00:03:58;;;;;;;363.13;42.63;;;0.20;99.90;;;;;;4957904;28;20468;-79
2022/03/08 00:06:27;;;;;;;1982.80;194.00;;;0.20;99.90;;;;;;4943557;28;20518;-79
2022/03/08 00:08:55;;;;;;;517.27;63.13;;;0.10;99.90;;;;;;4938827;29;20490;-79
2022/03/08 00:11:24;;;;;;;223.70;36.77;;;0.10;99.90;;;;;;4938174;29;20455;-79
2022/03/08 00:13:53;;;;;;;300.40;42.20;;;0.10;99.90;;;;;;4938090;28;20566;-78
2022/03/08 00:16:22;;;;;;;376.23;42.83;;;0.10;99.90;;;;;;4938357;29;20507;-78
2022/03/08 00:18:50;;;;;;;1863.17;142.10;;;0.10;99.90;;;;;;4946974;29;20463;-79
2022/03/08 00:21:19;;;;;;;1447.43;109.20;;;0.10;99.90;;;;;;4956035;28;20522;-78
2022/03/08 00:23:48;;;;;;;457.70;48.63;;;0.00;99.90;;;;;;4957346;28;20490;-79
2022/03/08 00:26:16;;;;;;;1898.97;163.37;;;0.00;99.90;;;;;;4958995;28;20449;-79
2022/03/08 00:28:45;;;;;;;346.37;44.40;;;0.00;99.90;;;;;;4957228;28;20469;-79
2022/03/08 00:31:15;;;;;;;1771.93;126.27;;;0.00;99.90;;;;;;4957565;29;20435;-79
2022/03/08 00:33:43;;;;;;;435.50;51.30;;;0.00;99.90;;;;;;4956753;28;20995;-78
2022/03/08 00:36:12;;;;;;;350.03;38.13;;;0.00;99.90;;;;;;4952774;28;20459;-79
2022/03/08 00:38:40;;;;;;;1999.90;198.17;;;-0.10;99.90;;;;;;4938162;29;20980;-79
2022/03/08 00:41:09;;;;;;;1999.90;157.40;;;-0.10;99.90;;;;;;4954402;29;20455;-79
2022/03/08 00:43:37;;;;;;;471.40;68.50;;;-0.10;99.90;;;;;;4957408;29;21011;-78
2022/03/08 00:46:05;;;;;;;1591.17;124.97;;;-0.10;99.90;;;;;;4962096;29;20467;-79
2022/03/08 00:48:36;;;;;;;859.87;75.87;;;-0.10;99.90;;;;;;4978022;29;20453;-78
2022/03/08 00:51:05;;;;;;;215.53;34.10;;;-0.10;99.90;;;;;;4978801;29;20515;-78
2022/03/08 00:53:33;;;;;;;1999.90;164.60;;;-0.20;99.90;;;;;;4967561;28;20483;-78
2022/03/08 00:56:02;;;;;;;277.57;34.90;;;-0.20;99.90;;;;;;4959343;29;20483;-78
2022/03/08 00:58:31;;;;;;;1999.90;221.70;;;-0.20;99.90;;;;;;4975940;28;20442;-78
2022/03/08 01:00:59;;;;;;;497.43;70.93;;;-0.20;99.90;;;;;;4958954;29;20440;-78
2022/03/08 01:03:28;;;;;;;1485.43;94.17;;;-0.20;99.90;;;;;;4959105;29;20500;-78
2022/03/08 01:05:58;;;;;;;477.40;41.70;;;-0.20;99.90;;;;;;4951116;28;20460;-78
2022/03/08 01:08:27;;;;;;;418.40;50.73;;;-0.30;99.90;;;;;;4965297;29;20462;-78
2022/03/08 01:10:55;;;;;;;1999.90;173.13;;;-0.30;99.90;;;;;;4959795;28;20471;-78
2022/03/08 01:13:24;;;;;;;1224.20;103.30;;;-0.30;99.90;;;;;;4963682;28;20485;-78
2022/03/08 01:15:53;;;;;;;1999.90;190.77;;;-0.30;99.90;;;;;;4957466;28;20578;-78
2022/03/08 01:18:23;;;;;;;441.90;56.73;;;-0.30;99.90;;;;;;4958174;29;20912;-78
2022/03/08 01:20:53;;;;;;;759.97;71.37;;;-0.40;99.90;;;;;;4956951;28;20494;-78
2022/03/08 01:23:23;;;;;;;1726.77;136.97;;;-0.40;99.90;;;;;;4957433;28;20475;-78
2022/03/08 01:25:51;;;;;;;1427.03;105.37;;;-0.40;99.90;;;;;;4944353;28;20518;-79
2022/03/08 01:28:22;;;;;;;533.50;51.30;;;-0.40;99.90;;;;;;4937541;29;20455;-79
2022/03/08 01:30:51;;;;;;;466.03;74.10;;;-0.40;99.90;;;;;;4937328;28;20487;-79
2022/03/08 01:33:20;;;;;;;529.87;78.83;;;-0.40;99.90;;;;;;4937043;28;20567;-79
2022/03/08 01:35:49;;;;;;;1999.90;197.27;;;-0.50;99.90;;;;;;4944629;28;20902;-79
2022/03/08 01:38:17;;;;;;;1993.10;165.40;;;-0.50;99.90;;;;;;4943406;29;20823;-78
2022/03/08 01:40:47;;;;;;;610.47;90.67;;;-0.50;99.90;;;;;;4955970;28;20460;-79
2022/03/08 01:43:16;;;;;;;1503.57;137.40;;;-0.50;99.90;;;;;;4956061;28;20462;-79
2022/03/08 01:45:44;;;;;;;1976.30;211.93;;;-0.50;99.90;;;;;;4956033;28;20458;-79
2022/03/08 01:48:13;;;;;;;481.90;78.83;;;-0.50;99.90;;;;;;4955688;28;20546;-78
2022/03/08 01:50:41;;;;;;;1927.47;189.30;;;-0.50;99.90;;;;;;4955846;28;20473;-79
2022/03/08 01:53:09;;;;;;;905.30;87.93;;;-0.50;99.90;;;;;;4951537;28;20483;-78
2022/03/08 01:55:49;;;;;;;907.70;80.20;;;-0.50;99.90;;;;;;4955356;29;20481;-78
2022/03/08 01:58:25;;;;;;;305.57;30.23;;;-0.60;99.90;;;;;;4955118;29;20439;-79
2022/03/08 02:00:54;;;;;;;316.33;40.20;;;-0.60;99.90;;;;;;4955214;28;20553;-79
2022/03/08 02:03:22;;;;;;;1982.13;165.70;;;-0.50;99.90;;;;;;4955272;29;20987;-79
2022/03/08 02:05:51;;;;;;;1999.90;208.97;;;-0.60;99.90;;;;;;4955235;28;21006;-79
2022/03/08 02:08:19;;;;;;;463.80;52.73;;;-0.60;99.90;;;;;;4955017;28;20489;-79
2022/03/08 02:10:48;;;;;;;1523.97;125.57;;;-0.60;99.90;;;;;;4956452;28;20443;-79
2022/03/08 02:13:16;;;;;;;1697.47;150.70;;;-0.60;99.90;;;;;;4951522;28;20554;-78
2022/03/08 02:15:49;;;;;;;592.53;54.97;;;-0.70;99.90;;;;;;4954781;28;21022;-78
2022/03/08 02:18:18;;;;;;;383.27;38.97;;;-0.70;99.90;;;;;;4954451;28;20983;-79
2022/03/08 02:20:47;;;;;;;367.13;59.87;;;-0.70;99.90;;;;;;4954705;29;20462;-78
2022/03/08 02:23:16;;;;;;;1466.80;93.90;;;-0.70;99.90;;;;;;4955027;28;20562;-78
2022/03/08 02:25:45;;;;;;;885.03;87.07;;;-0.70;99.90;;;;;;4954973;28;20449;-78
2022/03/08 02:28:13;;;;;;;1615.20;148.53;;;-0.70;99.90;;;;;;4952448;29;20502;-79
2022/03/08 02:30:41;;;;;;;560.67;41.73;;;-0.70;99.90;;;;;;4935496;29;20547;-78
2022/03/08 02:33:10;;;;;;;315.87;36.80;;;-0.80;99.90;;;;;;4936404;29;21030;-78
2022/03/08 02:35:38;;;;;;;889.47;94.20;;;-0.80;99.90;;;;;;4938671;28;20485;-78
2022/03/08 02:38:07;;;;;;;993.17;99.17;;;-0.80;99.90;;;;;;4935551;28;20546;-78
2022/03/08 02:40:39;;;;;;;361.47;45.03;;;-0.80;99.90;;;;;;4937504;29;20534;-78
2022/03/08 02:43:09;;;;;;;1999.90;129.17;;;-0.80;99.90;;;;;;4935171;29;20534;-77
2022/03/08 02:45:38;;;;;;;1461.70;117.37;;;-0.80;99.90;;;;;;4936701;29;20471;-79
2022/03/08 02:48:06;;;;;;;1214.30;90.37;;;-0.90;99.90;;;;;;4943045;29;20552;-79
2022/03/08 02:50:35;;;;;;;1695.30;122.40;;;-0.90;99.90;;;;;;4955021;28;20450;-79
2022/03/08 02:53:04;;;;;;;1479.83;113.10;;;-0.90;99.90;;;;;;4956419;28;20454;-78
2022/03/08 02:55:35;;;;;;;1030.70;100.33;;;-0.90;99.90;;;;;;4954545;28;20474;-79
2022/03/08 02:58:05;;;;;;;601.13;61.37;;;-0.90;99.90;;;;;;4954738;28;20453;-79
2022/03/08 03:00:35;;;;;;;516.17;43.33;;;-0.90;99.90;;;;;;4956257;28;20465;-79
2022/03/08 03:03:04;;;;;;;1052.00;80.23;;;-0.90;99.90;;;;;;4954480;28;20505;-79
2022/03/08 03:05:33;;;;;;;378.23;48.80;;;-0.90;99.90;;;;;;4953601;28;20964;-78
2022/03/08 03:08:02;;;;;;;352.43;40.73;;;-1.00;99.90;;;;;;4944939;29;20451;-79
2022/03/08 03:10:31;;;;;;;1221.27;75.73;;;-1.00;99.90;;;;;;4935276;29;20462;-78
2022/03/08 03:13:00;;;;;;;550.23;40.50;;;-1.00;99.90;;;;;;4936535;29;20957;-78
2022/03/08 03:15:30;;;;;;;454.37;33.90;;;-1.00;99.90;;;;;;4936304;29;20507;-78
2022/03/08 03:17:59;;;;;;;781.37;55.03;;;-1.00;99.90;;;;;;4935304;29;20507;-79
2022/03/08 03:20:28;;;;;;;812.43;61.33;;;-1.00;99.90;;;;;;4935153;29;20458;-79
2022/03/08 03:22:57;;;;;;;1999.90;220.27;;;-1.00;99.90;;;;;;4935323;29;20479;-79
2022/03/08 03:25:25;;;;;;;366.57;41.90;;;-1.00;99.90;;;;;;4939164;29;20474;-79
2022/03/08 03:27:53;;;;;;;495.30;50.53;;;-1.00;99.90;;;;;;4939204;29;20455;-79
2022/03/08 03:30:21;;;;;;;415.83;38.40;;;-1.00;99.90;;;;;;4951682;29;21085;-78
2022/03/08 03:32:51;;;;;;;1584.30;96.60;;;-1.10;99.90;;;;;;4952024;28;20455;-78
2022/03/08 03:35:20;;;;;;;425.17;49.73;;;-1.10;99.90;;;;;;4943272;28;20474;-79
2022/03/08 03:37:48;;;;;;;1632.47;124.70;;;-1.10;99.90;;;;;;4959616;28;20440;-79
2022/03/08 03:40:17;;;;;;;508.10;50.37;;;-1.00;99.90;;;;;;4960856;29;20474;-79
2022/03/08 03:42:45;;;;;;;912.53;72.53;;;-1.10;99.90;;;;;;4960047;29;20453;-79
2022/03/08 03:45:14;;;;;;;1276.90;83.37;;;-1.10;99.90;;;;;;4959849;28;20451;-79
2022/03/08 03:47:42;;;;;;;446.27;54.47;;;-1.10;99.90;;;;;;4960223;28;20454;-79
2022/03/08 03:50:12;;;;;;;1978.20;214.30;;;-1.10;99.90;;;;;;4954033;28;20832;-79
2022/03/08 03:52:40;;;;;;;523.00;71.03;;;-1.10;99.90;;;;;;4940940;28;20461;-79
2022/03/08 03:55:12;;;;;;;401.73;55.60;;;-1.10;99.90;;;;;;4941107;28;20457;-79
2022/03/08 03:57:40;;;;;;;748.53;64.33;;;-1.10;99.90;;;;;;4941484;29;20827;-79
2022/03/08 04:00:11;;;;;;;510.60;53.50;;;-1.20;99.90;;;;;;4946388;29;20489;-79
2022/03/08 04:02:41;;;;;;;1422.53;110.73;;;-1.20;99.90;;;;;;4961957;28;20454;-79
2022/03/08 04:05:13;;;;;;;305.90;32.57;;;-1.20;99.90;;;;;;4959647;29;20820;-79
2022/03/08 04:07:41;;;;;;;331.80;39.70;;;-1.20;99.90;;;;;;4943667;29;20424;-79
2022/03/08 04:10:11;;;;;;;378.03;38.33;;;-1.20;99.90;;;;;;4943528;28;20451;-79
2022/03/08 04:12:39;;;;;;;925.73;90.20;;;-1.20;99.90;;;;;;4942303;29;20494;-79
2022/03/08 04:15:09;;;;;;;1552.53;94.83;;;-1.20;99.90;;;;;;4947046;28;20475;-79
2022/03/08 04:17:37;;;;;;;1237.60;94.93;;;-1.20;99.90;;;;;;4960916;29;20489;-79
2022/03/08 04:20:08;;;;;;;1735.67;179.13;;;-1.20;99.90;;;;;;4962278;28;20477;-79
2022/03/08 04:22:38;;;;;;;436.70;59.33;;;-1.20;99.90;;;;;;4961327;28;20450;-79
2022/03/08 04:25:07;;;;;;;1250.13;79.93;;;-1.30;99.90;;;;;;4961003;28;21004;-79
2022/03/08 04:27:36;;;;;;;288.37;30.03;;;-1.30;99.90;;;;;;4960913;29;20476;-79
2022/03/08 04:30:06;;;;;;;393.73;45.00;;;-1.30;99.90;;;;;;4961719;28;20450;-79
2022/03/08 04:32:34;;;;;;;456.37;48.60;;;-1.30;99.90;;;;;;4943697;28;20469;-79
2022/03/08 04:35:02;;;;;;;1297.13;101.53;;;-1.30;99.90;;;;;;4953894;28;20479;-79
2022/03/08 04:37:31;;;;;;;1163.47;108.90;;;-1.30;99.90;;;;;;4941764;29;20478;-79
2022/03/08 04:40:00;;;;;;;1488.17;124.50;;;-1.30;99.90;;;;;;4942550;29;20514;-79
2022/03/08 04:42:29;;;;;;;584.77;73.40;;;-1.30;99.90;;;;;;4942042;29;20514;-79
2022/03/08 04:44:57;;;;;;;1615.67;155.07;;;-1.30;99.90;;;;;;4941940;29;20495;-79
2022/03/08 04:47:26;;;;;;;584.73;95.47;;;-1.40;99.90;;;;;;4942070;29;20455;-79
2022/03/08 04:49:54;;;;;;;1209.53;146.03;;;-1.40;99.90;;;;;;4954046;29;20463;-79
2022/03/08 04:52:22;;;;;;;1763.40;192.80;;;-1.40;99.90;;;;;;4942742;29;20447;-78
2022/03/08 04:54:51;;;;;;;562.03;87.20;;;-1.40;99.90;;;;;;4957596;28;20543;-79
2022/03/08 04:57:20;;;;;;;1373.07;141.53;;;-1.40;99.90;;;;;;4960684;28;20470;-79
2022/03/08 04:59:49;;;;;;;586.57;83.73;;;-1.30;99.90;;;;;;4960890;28;20526;-79
2022/03/08 05:02:17;;;;;;;583.90;72.23;;;-1.40;99.90;;;;;;4957451;28;20500;-79
2022/03/08 05:04:45;;;;;;;439.03;58.80;;;-1.40;99.90;;;;;;4960815;29;20471;-79
2022/03/08 05:07:13;;;;;;;400.17;66.40;;;-1.40;99.90;;;;;;4960956;28;20459;-79
2022/03/08 05:09:42;;;;;;;330.53;38.80;;;-1.40;99.90;;;;;;4961339;28;20454;-79
2022/03/08 05:12:11;;;;;;;425.73;61.53;;;-1.40;99.90;;;;;;4962173;28;20489;-79
2022/03/08 05:14:41;;;;;;;1139.37;78.73;;;-1.40;99.90;;;;;;4963151;28;20470;-79
2022/03/08 05:17:10;;;;;;;1004.13;99.83;;;-1.40;99.90;;;;;;4962196;28;20497;-79
2022/03/08 05:19:38;;;;;;;1496.73;120.90;;;-1.40;99.90;;;;;;4961203;28;20849;-79
2022/03/08 05:22:06;;;;;;;453.00;46.17;;;-1.40;99.90;;;;;;4961676;28;20450;-79
2022/03/08 05:24:34;;;;;;;523.00;43.07;;;-1.40;99.90;;;;;;4960801;28;20469;-79
2022/03/08 05:27:02;;;;;;;1361.50;100.03;;;-1.40;99.90;;;;;;4961504;28;20479;-79
2022/03/08 05:29:31;;;;;;;535.30;70.63;;;-1.50;99.90;;;;;;4961499;28;20451;-79
2022/03/08 05:32:01;;;;;;;1810.40;228.90;;;-1.50;99.90;;;;;;4962281;28;20500;-79
2022/03/08 05:34:29;;;;;;;1387.07;113.07;;;-1.50;99.90;;;;;;4960676;28;20487;-79
2022/03/08 05:36:57;;;;;;;793.97;93.50;;;-1.50;99.90;;;;;;4961388;28;20848;-79
2022/03/08 05:39:25;;;;;;;442.20;56.13;;;-1.50;99.90;;;;;;4961288;28;20458;-79
2022/03/08 05:41:54;;;;;;;1704.50;187.73;;;-1.50;99.90;;;;;;4961428;28;20553;-79
2022/03/08 05:44:22;;;;;;;181.70;33.50;;;-1.50;99.90;;;;;;4961463;28;20564;-79
2022/03/08 05:46:50;;;;;;;669.10;80.90;;;-1.50;99.90;;;;;;4961144;28;20447;-79
2022/03/08 05:49:22;;;;;;;555.27;65.50;;;-1.50;99.90;;;;;;4961262;28;20459;-79
2022/03/08 05:51:50;;;;;;;824.10;86.23;;;-1.50;99.90;;;;;;4961820;28;20451;-80
2022/03/08 05:54:18;;;;;;;561.27;67.10;;;-1.50;99.90;;;;;;4961183;28;20565;-79
2022/03/08 05:56:47;;;;;;;1165.63;88.30;;;-1.50;99.90;;;;;;4962950;28;20466;-79
2022/03/08 05:59:15;;;;;;;940.33;90.53;;;-1.50;99.90;;;;;;4961525;28;20816;-80
2022/03/08 06:01:44;;;;;;;1838.07;184.90;;;-1.40;99.90;;;;;;4961413;28;20455;-79
2022/03/08 06:04:12;;;;;;;960.70;74.87;;;-1.40;99.90;;;;;;4961619;29;20462;-79
2022/03/08 06:06:42;;;;;;;586.00;95.73;;;-1.40;99.90;;;;;;4966424;29;20458;-79
2022/03/08 06:09:10;;;;;;;585.17;71.33;;;-1.40;99.90;;;;;;4967673;28;20454;-79
2022/03/08 06:11:39;;;;;;;522.93;61.87;;;-1.40;99.90;;;;;;4976198;28;20486;-79
2022/03/08 06:14:07;;;;;;;505.63;75.60;;;-1.50;99.90;;;;;;4975163;28;20478;-79
2022/03/08 06:16:35;;;;;;;450.73;71.97;;;-1.40;99.90;;;;;;4974532;28;20478;-79
2022/03/08 06:19:04;;;;;;;1223.67;148.10;;;-1.50;99.90;;;;;;4974978;28;20478;-79
2022/03/08 06:21:33;;;;;;;491.23;69.47;;;-1.40;99.90;;;;;;4972167;29;20470;-79
2022/03/08 06:24:03;;;;;;;544.23;63.53;;;-1.40;99.90;;;;;;4968363;28;20486;-79
2022/03/08 06:26:32;;;;;;;449.03;67.47;;;-1.40;99.90;;;;;;4968859;28;20526;-79
2022/03/08 06:29:00;;;;;;;542.47;70.57;;;-1.40;99.90;;;;;;4969662;29;20455;-79
2022/03/08 06:31:28;;;;;;;424.00;52.43;;;-1.40;99.90;;;;;;4973587;29;20473;-79
2022/03/08 06:33:57;;;;;;;810.60;57.83;;;-1.40;99.90;;;;;;4975262;29;20462;-79
2022/03/08 06:36:30;;;;;;;1297.03;110.57;;;-1.40;99.90;;;;;;4972143;28;20470;-79
2022/03/08 06:38:58;;;;;;;586.63;56.83;;;-1.40;99.90;;;;;;4967460;28;20454;-79
2022/03/08 06:41:28;;;;;;;673.03;75.03;;;-1.30;99.90;;;;;;4967056;29;20454;-79
2022/03/08 06:43:56;;;;;;;1355.13;137.47;;;-1.30;99.90;;;;;;4967385;28;20466;-79
2022/03/08 06:46:25;;;;;;;587.07;78.07;;;-1.30;99.90;;;;;;4963459;28;20538;-79
2022/03/08 06:48:53;;;;;;;1999.90;248.00;;;-1.30;99.90;;;;;;4964648;29;20450;-79
2022/03/08 06:51:22;;;;;;;583.43;77.73;;;-1.30;99.90;;;;;;4960034;28;20535;-80
2022/03/08 06:53:50;;;;;;;1898.13;196.47;;;-1.20;99.90;;;;;;4959569;28;20494;-79
2022/03/08 06:56:18;;;;;;;532.50;80.67;;;-1.10;99.90;;;;;;4959859;28;20458;-79
2022/03/08 06:58:48;;;;;;;502.20;50.80;;;-1.00;99.90;;;;;;4965506;28;20470;-79
2022/03/08 07:01:16;;;;;;;1978.87;185.50;;;-0.90;99.90;;;;;;4966183;28;20557;-80
2022/03/08 07:03:45;;;;;;;623.60;70.73;;;-0.80;99.90;;;;;;4965557;28;20518;-80
2022/03/08 07:06:13;;;;;;;457.03;58.67;;;-0.60;99.90;;;;;;4966093;28;20453;-79
2022/03/08 07:08:41;;;;;;;530.40;38.73;;;-0.60;99.90;;;;;;4967382;29;20442;-80
2022/03/08 07:11:10;;;;;;;484.50;89.23;;;-0.50;99.90;;;;;;4967092;28;20453;-80
2022/03/08 07:13:39;;;;;;;352.93;49.10;;;-0.40;99.90;;;;;;4966147;28;20477;-80
2022/03/08 07:16:08;;;;;;;725.33;79.30;;;-0.30;99.90;;;;;;4966516;28;20876;-80
2022/03/08 07:18:37;;;;;;;612.60;100.90;;;-0.30;99.90;;;;;;4968016;28;20470;-80
2022/03/08 07:21:05;;;;;;;453.60;56.83;;;-0.20;99.90;;;;;;4966238;28;20505;-79
2022/03/08 07:23:34;;;;;;;499.53;64.00;;;-0.20;99.90;;;;;;4966534;29;20467;-79
2022/03/08 07:26:02;;;;;;;551.33;71.97;;;-0.10;99.90;;;;;;4968600;29;20892;-80
2022/03/08 07:28:31;;;;;;;533.10;68.80;;;-0.10;99.90;;;;;;4967995;28;20812;-80
2022/03/08 07:31:01;;;;;;;412.57;70.60;;;-0.10;99.90;;;;;;4967053;28;20458;-79
2022/03/08 07:33:32;;;;;;;392.03;53.03;;;0.10;99.90;;;;;;4967018;28;20542;-80
2022/03/08 07:36:03;;;;;;;416.40;55.47;;;0.10;99.90;;;;;;4966845;28;20465;-80
2022/03/08 07:38:31;;;;;;;521.67;87.50;;;0.20;99.90;;;;;;4967577;29;20474;-80
2022/03/08 07:41:03;;;;;;;536.20;86.10;;;0.20;99.90;;;;;;4968175;28;20435;-80
2022/03/08 07:43:34;;;;;;;619.10;77.03;;;0.30;99.90;;;;;;4968954;28;20826;-80
2022/03/08 07:46:03;;;;;;;555.47;88.17;;;0.40;99.90;;;;;;4968380;29;20454;-80
2022/03/08 07:48:33;;;;;;;503.20;54.83;;;0.40;99.90;;;;;;4969581;28;20448;-80
2022/03/08 07:51:01;;;;;;;228.73;57.43;;;0.50;99.90;;;;;;4969233;28;20482;-80
2022/03/08 07:53:31;;;;;;;528.10;56.97;;;0.60;99.90;;;;;;4969301;28;20526;-80
2022/03/08 07:55:59;;;;;;;459.40;61.17;;;0.70;99.90;;;;;;4970290;29;20521;-80
2022/03/08 07:58:27;;;;;;;663.87;87.70;;;0.80;99.90;;;;;;4970140;29;20478;-80
2022/03/08 08:00:55;;;;;;;245.97;45.27;;;0.90;99.90;;;;;;4970975;28;20959;-80
2022/03/08 08:03:25;;;;;;;668.13;96.07;;;1.00;99.90;;;;;;4970897;29;20509;-80
2022/03/08 08:05:59;;;;;;;290.07;65.13;;;1.10;99.90;;;;;;4970491;28;20447;-80
2022/03/08 08:08:28;;;;;;;518.70;76.70;;;1.20;99.90;;;;;;4970795;29;20476;-80
2022/03/08 08:10:56;;;;;;;401.97;68.80;;;1.30;99.90;;;;;;4969276;28;20454;-80
2022/03/08 08:13:25;;;;;;;249.40;55.67;;;1.50;99.90;;;;;;4969567;28;20471;-80
2022/03/08 08:15:53;;;;;;;768.67;97.57;;;1.70;99.90;;;;;;4967814;28;20463;-79
2022/03/08 08:18:21;;;;;;;1194.37;122.50;;;1.90;99.90;;;;;;4967052;28;20507;-80
2022/03/08 08:20:50;;;;;;;783.73;109.23;;;2.10;99.90;;;;;;4968026;28;20453;-79
2022/03/08 08:23:19;;;;;;;954.27;113.77;;;2.30;99.90;;;;;;4961064;28;20486;-79
2022/03/08 08:25:48;;;;;;;1271.07;187.87;;;2.50;99.90;;;;;;4963713;28;20504;-79
2022/03/08 08:28:16;;;;;;;1186.63;165.60;;;2.70;99.90;;;;;;4964670;28;20497;-79
2022/03/08 08:30:46;;;;;;;1669.23;243.40;;;2.80;99.90;;;;;;4964439;28;20466;-79
2022/03/08 08:33:14;;;;;;;1999.90;384.23;;;3.00;99.90;;;;;;4964282;28;20903;-80
2022/03/08 08:35:43;;;;;;;1704.47;287.33;;;3.20;99.90;;;;;;4964541;28;20453;-79
2022/03/08 08:38:11;;;;;;;1999.90;434.33;;;3.40;99.90;;;;;;4962943;28;20481;-80
2022/03/08 08:40:40;;;;;;;1999.90;592.90;;;3.50;99.90;;;;;;4963869;28;21006;-79
2022/03/08 08:43:09;;;;;;;1999.90;679.57;;;3.70;99.90;;;;;;4962279;29;20479;-79
2022/03/08 08:45:37;;;;;;;1999.90;830.90;;;3.90;99.90;;;;;;4962419;28;20538;-79
2022/03/08 08:48:07;;;;;;;1999.90;658.77;;;4.00;99.90;;;;;;4963165;28;20541;-79
2022/03/08 08:50:37;;;;;;;1999.90;893.53;;;4.20;99.90;;;;;;4962900;29;20538;-80
2022/03/08 08:53:05;;;;;;;1999.90;999.90;;;4.40;99.90;;;;;;4960804;28;20458;-79
2022/03/08 08:55:36;;;;;;;1999.90;964.93;;;4.50;99.90;;;;;;4961278;28;20453;-79
2022/03/08 08:58:07;;;;;;;1999.90;999.90;;;4.60;99.90;;;;;;4961252;28;20476;-78
2022/03/08 09:00:35;;;;;;;1999.90;999.90;;;4.70;99.90;;;;;;4961352;28;20530;-79
2022/03/08 09:03:06;;;;;;;1999.90;978.60;;;4.80;99.90;;;;;;4961158;28;20462;-79
2022/03/08 09:05:35;;;;;;;1999.90;965.60;;;4.90;99.90;;;;;;4961095;29;20807;-79
2022/03/08 09:08:04;;;;;;;1999.90;895.93;;;4.90;99.90;;;;;;4962273;28;20450;-79
2022/03/08 09:10:33;;;;;;;1999.90;614.40;;;5.00;99.90;;;;;;4961322;29;20490;-79
2022/03/08 09:13:01;;;;;;;1999.90;713.93;;;5.10;99.90;;;;;;4960576;29;20509;-79
2022/03/08 09:15:31;;;;;;;1999.90;425.70;;;5.20;99.90;;;;;;4962348;28;20947;-78
2022/03/08 09:18:00;;;;;;;1999.90;542.93;;;5.20;99.90;;;;;;4960236;28;20451;-79
2022/03/08 09:20:28;;;;;;;1999.90;763.00;;;5.30;99.90;;;;;;4959441;28;20545;-79
2022/03/08 09:22:57;;;;;;;1999.90;741.77;;;5.40;99.90;;;;;;4959591;29;20475;-79
2022/03/08 09:25:26;;;;;;;1893.80;714.67;;;5.40;99.90;;;;;;4960012;28;20454;-79
2022/03/08 09:27:55;;;;;;;1999.90;999.90;;;5.50;99.90;;;;;;4959111;28;20958;-79
2022/03/08 09:30:23;;;;;;;1645.30;413.27;;;5.50;99.90;;;;;;4959043;28;20945;-79
2022/03/08 09:32:53;;;;;;;1999.90;734.80;;;5.60;99.90;;;;;;4959618;28;20816;-79
2022/03/08 09:35:21;;;;;;;1897.80;470.10;;;5.60;99.90;;;;;;4958754;28;20463;-79
2022/03/08 09:37:49;;;;;;;1999.90;999.90;;;5.70;99.90;;;;;;4960667;29;20487;-79
2022/03/08 09:40:18;;;;;;;1999.90;999.90;;;5.70;99.90;;;;;;4960743;28;20475;-79
2022/03/08 09:42:46;;;;;;;1652.90;685.37;;;5.80;99.90;;;;;;4962130;28;20466;-79
2022/03/08 09:45:15;;;;;;;1999.90;999.90;;;5.80;99.90;;;;;;4961388;28;20510;-79
2022/03/08 09:47:43;;;;;;;1999.90;999.90;;;5.80;99.90;;;;;;4960396;28;20450;-79
2022/03/08 09:50:14;;;;;;;1999.90;999.90;;;5.90;99.90;;;;;;4962066;28;20863;-79
2022/03/08 09:52:47;;;;;;;1999.90;999.90;;;5.90;99.90;;;;;;4960228;29;20912;-79
2022/03/08 09:55:18;;;;;;;1999.90;999.90;;;5.90;99.90;;;;;;4960461;28;20458;-79
2022/03/08 09:57:49;;;;;;;1999.90;999.90;;;6.00;99.90;;;;;;4960787;29;20448;-79
2022/03/08 10:00:17;;;;;;;1999.90;999.90;;;6.10;99.90;;;;;;4960191;28;20497;-79
2022/03/08 10:02:47;;;;;;;1999.90;718.97;;;6.10;99.90;;;;;;4960537;28;20506;-79
2022/03/08 10:05:22;;;;;;;1999.90;601.30;;;6.20;99.90;;;;;;4962147;29;20463;-79
2022/03/08 10:08:10;;;;;;;1999.90;999.90;;;6.20;99.90;;;;;;4962044;28;20422;-79
2022/03/08 10:10:51;;;;;;;1999.90;611.00;;;6.30;99.90;;;;;;4960674;29;20447;-79
2022/03/08 10:13:25;;;;;;;1999.90;802.90;;;6.30;99.90;;;;;;4961022;28;20521;-80
2022/03/08 10:16:08;;;;;;;1999.90;547.97;;;6.40;99.90;;;;;;4962415;28;20530;-79
2022/03/08 10:18:40;;;;;;;1820.23;364.43;;;6.40;99.90;;;;;;4958923;28;20447;-79
2022/03/08 10:21:31;;;;;;;1999.90;445.07;;;6.50;99.90;;;;;;4955094;29;20450;-78
2022/03/08 10:24:02;;;;;;;1999.90;675.57;;;6.60;99.90;;;;;;4960707;28;20491;-79
2022/03/08 10:26:32;;;;;;;636.77;130.80;;;6.60;99.90;;;;;;4960611;28;20430;-79
2022/03/08 10:29:04;;;;;;;633.27;161.00;;;6.70;99.90;;;;;;4960695;29;20809;-79
2022/03/08 10:31:32;;;;;;;172.67;51.53;;;6.70;99.90;;;;;;4958638;29;20441;-79
2022/03/08 10:34:05;;;;;;;35.73;17.83;;;6.70;99.90;;;;;;4957648;28;20507;-79
2022/03/08 10:36:37;;;;;;;26.47;9.30;;;6.80;99.90;;;;;;4958363;29;20491;-79
2022/03/08 10:39:12;;;;;;;7.43;5.93;;;6.90;99.90;;;;;;4959196;29;20499;-78
2022/03/08 10:41:48;;;;;;;7.70;5.63;;;6.90;99.90;;;;;;4954638;28;20478;-78
2022/03/08 10:44:19;;;;;;;5.50;4.40;;;7.00;99.90;;;;;;4954143;29;20479;-78
2022/03/08 10:47:00;;;;;;;7.00;4.10;;;7.00;99.90;;;;;;4954245;28;20881;-78
2022/03/08 10:49:28;;;;;;;5.20;4.43;;;7.10;99.90;;;;;;4955532;29;20507;-79
2022/03/08 10:52:04;;;;;;;4.87;4.33;;;7.10;99.90;;;;;;4956448;28;20523;-79
2022/03/08 10:54:33;;;;;;;5.67;4.60;;;7.20;99.90;;;;;;4955696;28;20821;-79
2022/03/08 10:57:02;;;;;;;5.30;4.60;;;7.20;99.90;;;;;;4956149;29;20483;-78
2022/03/08 10:59:31;;;;;;;6.20;4.77;;;7.30;99.90;;;;;;4955570;29;20467;-79
2022/03/08 11:02:09;;;;;;;8.93;5.13;;;7.30;99.90;;;;;;4954659;28;20868;-79
2022/03/08 11:04:37;;;;;;;5.93;4.40;;;7.40;99.90;;;;;;4954787;28;20478;-78
2022/03/08 11:07:07;;;;;;;4.57;4.03;;;7.50;99.90;;;;;;4954673;28;20530;-78
2022/03/08 11:09:36;;;;;;;5.40;4.80;;;7.50;99.90;;;;;;4954362;29;20467;-78
2022/03/08 11:12:06;;;;;;;5.93;5.33;;;7.50;99.90;;;;;;4957224;28;20482;-78
2022/03/08 11:14:35;;;;;;;5.27;4.30;;;7.60;99.90;;;;;;4957207;28;20536;-79
2022/03/08 11:17:04;;;;;;;5.17;4.67;;;7.70;99.90;;;;;;4957034;28;20969;-79
2022/03/08 11:19:32;;;;;;;5.47;3.60;;;7.70;99.90;;;;;;4956993;28;20484;-79
2022/03/08 11:22:02;;;;;;;5.73;5.10;;;7.80;99.90;;;;;;4957813;28;20533;-79
2022/03/08 11:24:32;;;;;;;4.97;3.70;;;7.80;99.90;;;;;;4957106;28;20479;-79
2022/03/08 11:27:01;;;;;;;4.93;4.00;;;7.80;99.90;;;;;;4956632;29;20490;-79
2022/03/08 11:29:30;;;;;;;7.33;4.17;;;7.90;99.90;;;;;;4956593;28;20860;-79
2022/03/08 11:32:01;;;;;;;4.80;3.53;;;7.90;99.90;;;;;;4957900;29;20445;-79
2022/03/08 11:34:38;;;;;;;4.97;3.57;;;8.00;99.90;;;;;;4957661;28;20485;-79
2022/03/08 11:37:14;;;;;;;5.53;4.00;;;8.00;99.90;;;;;;4957095;29;20532;-79
2022/03/08 11:39:43;;;;;;;4.67;3.70;;;8.10;99.90;;;;;;4959248;28;20488;-79
2022/03/08 11:42:26;;;;;;;4.47;3.83;;;8.10;99.90;;;;;;4959442;28;20447;-79
2022/03/08 11:45:00;;;;;;;4.10;3.60;;;8.20;99.90;;;;;;4962257;28;20503;-79
2022/03/08 11:47:41;;;;;;;5.27;4.17;;;8.20;99.90;;;;;;4975949;28;20425;-79
2022/03/08 11:50:22;;;;;;;3.90;3.13;;;8.20;99.90;;;;;;4975751;29;20471;-78
2022/03/08 11:53:04;;;;;;;5.33;4.20;;;8.30;99.90;;;;;;4976789;28;20446;-79
2022/03/08 11:55:36;;;;;;;5.03;4.37;;;8.30;99.90;;;;;;4980476;29;20434;-78
2022/03/08 11:58:05;;;;;;;5.47;4.53;;;8.40;99.90;;;;;;4979194;29;20470;-78
2022/03/08 12:00:42;;;;;;;5.00;3.87;;;8.40;99.90;;;;;;4979058;28;20484;-79
2022/03/08 12:03:14;;;;;;;6.63;3.40;;;8.40;99.90;;;;;;4975896;28;20967;-79
2022/03/08 12:05:58;;;;;;;4.97;3.83;;;8.50;99.90;;;;;;4972640;28;20460;-79
2022/03/08 12:08:59;;;;;;;5.20;3.53;;;8.50;99.90;;;;;;4970194;29;20450;-79
2022/03/08 12:11:36;;;;;;;4.27;3.87;;;8.60;99.90;;;;;;4967931;29;20503;-78
2022/03/08 12:14:26;;;;;;;5.43;3.80;;;8.60;99.90;;;;;;4960095;28;20510;-78
2022/03/08 12:17:07;;;;;;;7.13;4.23;;;8.70;99.90;;;;;;4958772;28;20450;-78
2022/03/08 12:19:37;;;;;;;6.53;4.40;;;8.70;99.90;;;;;;4958523;28;20954;-78
2022/03/08 12:22:10;;;;;;;4.60;3.90;;;8.70;99.90;;;;;;4957882;29;20574;-79
2022/03/08 12:24:42;;;;;;;6.90;4.63;;;8.70;99.90;;;;;;4957675;28;20469;-78
2022/03/08 12:27:12;;;;;;;5.33;3.73;;;8.80;99.90;;;;;;4957145;29;20862;-78
2022/03/08 12:30:01;;;;;;;4.77;4.30;;;8.80;99.90;;;;;;4956771;29;20793;-77
2022/03/08 12:32:33;;;;;;;4.77;3.93;;;8.80;99.90;;;;;;4956325;28;20458;-78